Time;durP1;ratioP1;P1;durP2;ratioP2;P2;SDS_P1;SDS_P2;PMS_P1;PMS_P2;Temp;Humidity;BMP_temperature;BMP_pressure;BME280_temperature;BME280_humidity;BME280_pressure;Samples;Min_cycle;Max_cycle;Signal;HPM_P1;HPM_P2
2022/05/14 00:01:36;;;;;;;;;;;16.80;94.30;;;;;;5091895;28;19991;-73
2022/05/14 00:04:02;;;;;;;;;;;16.70;94.60;;;;;;5091811;28;20420;-73
2022/05/14 00:06:28;;;;;;;;;;;16.60;94.70;;;;;;5091815;28;19908;-72
2022/05/14 00:08:54;;;;;;;;;;;16.60;95.10;;;;;;5091636;28;19916;-72
2022/05/14 00:14:05;;;;;;;;;;;16.60;95.50;;;;;;5091870;28;20015;-72
2022/05/14 00:16:32;;;;;;;;;;;16.60;95.70;;;;;;5091750;28;20411;-72
2022/05/14 00:18:57;;;;;;;;;;;16.60;95.90;;;;;;5090147;28;20270;-72
2022/05/14 00:21:23;;;;;;;;;;;16.60;96.10;;;;;;5091646;28;19999;-72
2022/05/14 00:23:48;;;;;;;;;;;16.50;96.50;;;;;;5091354;28;19916;-72
2022/05/14 00:26:14;;;;;;;;;;;16.40;96.70;;;;;;5091696;28;19975;-72
2022/05/14 00:28:40;;;;;;;;;;;16.30;97.00;;;;;;5091566;28;19916;-72
2022/05/14 00:31:05;;;;;;;;;;;16.30;97.40;;;;;;5091590;28;19919;-72
2022/05/14 00:33:31;;;;;;;;;;;16.20;97.80;;;;;;5091504;28;20360;-72
2022/05/14 00:35:57;;;;;;;;;;;16.10;98.10;;;;;;5091656;28;19923;-72
2022/05/14 00:38:23;;;;;;;;;;;16.00;98.40;;;;;;5089954;28;20423;-72
2022/05/14 00:40:55;;;;;;;;;;;16.00;98.80;;;;;;5090287;28;19918;-72
2022/05/14 00:43:20;;;;;;;;;;;16.00;99.10;;;;;;5089971;28;20437;-73
2022/05/14 00:46:09;;;;;;;;;;;16.10;99.20;;;;;;5091553;28;19955;-72
2022/05/14 00:48:36;;;;;;;;;;;16.10;99.30;;;;;;5083413;28;19924;-72
2022/05/14 00:51:02;;;;;;;;;;;16.10;99.60;;;;;;5091387;28;20433;-72
2022/05/14 00:53:32;;;;;;;;;;;16.20;99.80;;;;;;5089656;28;19920;-72
2022/05/14 00:56:01;;;;;;;;;;;16.20;99.90;;;;;;5091255;28;19915;-72
2022/05/14 00:58:53;;;;;;;;;;;16.20;99.90;;;;;;5091075;28;20007;-72
2022/05/14 01:01:18;;;;;;;;;;;16.20;99.90;;;;;;5087839;28;19912;-72
2022/05/14 01:03:44;;;;;;;;;;;16.20;99.90;;;;;;5091533;28;19916;-72
2022/05/14 01:06:11;;;;;;;;;;;16.20;99.90;;;;;;5091474;28;19908;-72
2022/05/14 01:08:37;;;;;;;;;;;16.10;99.90;;;;;;5091238;28;19920;-72
2022/05/14 01:11:03;;;;;;;;;;;16.00;99.90;;;;;;5092884;28;19966;-73
2022/05/14 01:13:29;;;;;;;;;;;16.00;99.90;;;;;;5095050;28;20316;-73
2022/05/14 01:15:57;;;;;;;;;;;16.00;99.90;;;;;;5095209;28;19999;-72
2022/05/14 01:18:23;;;;;;;;;;;16.00;99.90;;;;;;5094733;28;19966;-72
2022/05/14 01:20:54;;;;;;;;;;;16.00;99.90;;;;;;5094794;28;20015;-72
2022/05/14 01:23:23;;;;;;;;;;;16.00;99.90;;;;;;5094710;28;19927;-73
2022/05/14 01:28:41;;;;;;;;;;;16.00;99.90;;;;;;5094653;28;19938;-72
2022/05/14 01:31:07;;;;;;;;;;;16.00;99.90;;;;;;5093415;28;20356;-72
2022/05/14 01:33:33;;;;;;;;;;;15.90;99.90;;;;;;5093106;28;20012;-72
2022/05/14 01:35:58;;;;;;;;;;;16.00;99.90;;;;;;5084044;28;20010;-72
2022/05/14 01:38:24;;;;;;;;;;;15.90;99.90;;;;;;5073202;28;20415;-72
2022/05/14 01:40:50;;;;;;;;;;;15.90;99.90;;;;;;5074690;28;19916;-73
2022/05/14 01:43:15;;;;;;;;;;;15.90;99.90;;;;;;5074229;28;19985;-72
2022/05/14 01:45:41;;;;;;;;;;;15.70;99.90;;;;;;5074363;28;19917;-73
2022/05/14 01:48:07;;;;;;;;;;;15.80;99.90;;;;;;5074242;28;19912;-72
2022/05/14 01:50:33;;;;;;;;;;;15.80;99.90;;;;;;5074403;28;19917;-72
2022/05/14 01:52:59;;;;;;;;;;;15.80;99.90;;;;;;5074203;28;19912;-72
2022/05/14 01:55:24;;;;;;;;;;;15.80;99.90;;;;;;5073924;28;20062;-72
2022/05/14 01:57:50;;;;;;;;;;;15.80;99.90;;;;;;5074079;28;19913;-72
2022/05/14 02:00:16;;;;;;;;;;;15.80;99.90;;;;;;5073679;28;19923;-72
2022/05/14 02:02:42;;;;;;;;;;;15.80;99.90;;;;;;5073740;28;19913;-72
2022/05/14 02:05:08;;;;;;;;;;;15.80;99.90;;;;;;5074059;28;19924;-72
2022/05/14 02:07:33;;;;;;;;;;;15.90;99.90;;;;;;5074022;28;19913;-72
2022/05/14 02:09:59;;;;;;;;;;;15.80;99.90;;;;;;5073963;28;19917;-72
2022/05/14 02:12:24;;;;;;;;;;;15.80;99.90;;;;;;5073968;28;19913;-73
2022/05/14 02:14:50;;;;;;;;;;;15.80;99.90;;;;;;5073493;28;20380;-72
2022/05/14 02:17:15;;;;;;;;;;;15.80;99.90;;;;;;5073654;28;19916;-72
2022/05/14 02:19:41;;;;;;;;;;;15.70;99.90;;;;;;5073632;28;19928;-72
2022/05/14 02:22:07;;;;;;;;;;;15.70;99.90;;;;;;5072873;28;20011;-72
2022/05/14 02:24:36;;;;;;;;;;;15.70;99.90;;;;;;5073044;28;21540;-72
2022/05/14 02:27:01;;;;;;;;;;;15.70;99.90;;;;;;5073423;28;19958;-73
2022/05/14 02:29:27;;;;;;;;;;;15.60;99.90;;;;;;5073135;28;19932;-72
2022/05/14 02:31:53;;;;;;;;;;;15.60;99.90;;;;;;5073392;28;19912;-72
2022/05/14 02:34:18;;;;;;;;;;;15.70;99.90;;;;;;5071923;28;20395;-73
2022/05/14 02:36:44;;;;;;;;;;;15.70;99.90;;;;;;5073344;28;20348;-72
2022/05/14 02:39:09;;;;;;;;;;;15.60;99.90;;;;;;5073231;28;19923;-72
2022/05/14 02:41:35;;;;;;;;;;;15.70;99.90;;;;;;5071748;28;19966;-72
2022/05/14 02:44:00;;;;;;;;;;;15.60;99.90;;;;;;5072925;28;19966;-72
2022/05/14 02:46:26;;;;;;;;;;;15.70;99.90;;;;;;5073008;28;20031;-72
2022/05/14 02:48:51;;;;;;;;;;;15.70;99.90;;;;;;5073009;28;19924;-72
2022/05/14 02:51:17;;;;;;;;;;;15.70;99.90;;;;;;5072864;28;19990;-72
2022/05/14 02:53:43;;;;;;;;;;;15.80;99.90;;;;;;5071522;28;19942;-73
2022/05/14 02:56:08;;;;;;;;;;;15.80;99.90;;;;;;5071568;28;20132;-73
2022/05/14 03:01:17;;;;;;;;;;;15.80;99.90;;;;;;5072984;28;19915;-72
2022/05/14 03:03:43;;;;;;;;;;;15.90;99.90;;;;;;5071136;28;19916;-72
2022/05/14 03:06:08;;;;;;;;;;;15.90;99.90;;;;;;5072663;28;19948;-73
2022/05/14 03:08:34;;;;;;;;;;;15.90;99.90;;;;;;5072567;28;20316;-71
2022/05/14 03:11:00;;;;;;;;;;;15.90;99.90;;;;;;5071213;28;19913;-72
2022/05/14 03:13:25;;;;;;;;;;;15.90;99.90;;;;;;5072428;28;20334;-72
2022/05/14 03:15:51;;;;;;;;;;;15.80;99.90;;;;;;5072400;28;19909;-72
2022/05/14 03:18:16;;;;;;;;;;;15.90;99.90;;;;;;5072268;28;20028;-72
2022/05/14 03:20:42;;;;;;;;;;;15.80;99.90;;;;;;5072318;28;19927;-72
2022/05/14 03:23:08;;;;;;;;;;;15.90;99.90;;;;;;5072182;28;20228;-72
2022/05/14 03:25:33;;;;;;;;;;;15.80;99.90;;;;;;5070958;28;19912;-72
2022/05/14 03:27:59;;;;;;;;;;;15.90;99.90;;;;;;5072488;28;19909;-72
2022/05/14 03:30:24;;;;;;;;;;;15.90;99.90;;;;;;5072077;28;19923;-72
2022/05/14 03:32:50;;;;;;;;;;;15.90;99.90;;;;;;5070774;28;20430;-72
2022/05/14 03:35:15;;;;;;;;;;;15.80;99.90;;;;;;5072318;28;19922;-71
2022/05/14 03:37:41;;;;;;;;;;;15.80;99.90;;;;;;5071999;28;19912;-71
2022/05/14 03:40:08;;;;;;;;;;;15.80;99.90;;;;;;5071793;28;19952;-71
2022/05/14 03:42:34;;;;;;;;;;;15.70;99.90;;;;;;5071987;28;19912;-71
2022/05/14 03:44:59;;;;;;;;;;;15.70;99.90;;;;;;5072117;28;20307;-72
2022/05/14 03:47:25;;;;;;;;;;;15.60;99.90;;;;;;5072003;28;19913;-72
2022/05/14 03:49:50;;;;;;;;;;;15.50;99.90;;;;;;5070520;28;20322;-72
2022/05/14 03:52:16;;;;;;;;;;;15.50;99.90;;;;;;5071854;28;19923;-72
2022/05/14 03:54:45;;;;;;;;;;;15.40;99.90;;;;;;5071913;28;19951;-71
2022/05/14 03:57:10;;;;;;;;;;;15.30;99.90;;;;;;5071801;28;19913;-72
2022/05/14 03:59:36;;;;;;;;;;;15.30;99.90;;;;;;5071761;28;20597;-72
2022/05/14 04:02:02;;;;;;;;;;;15.40;99.90;;;;;;5070275;28;19913;-72
2022/05/14 04:04:28;;;;;;;;;;;15.40;99.90;;;;;;5071661;28;19916;-72
2022/05/14 04:06:54;;;;;;;;;;;15.60;99.90;;;;;;5071562;28;19913;-72
2022/05/14 04:09:19;;;;;;;;;;;15.60;99.90;;;;;;5071606;28;20019;-72
2022/05/14 04:11:45;;;;;;;;;;;15.70;99.90;;;;;;5071657;28;19952;-72
2022/05/14 04:14:11;;;;;;;;;;;15.70;99.90;;;;;;5071754;28;20327;-72
2022/05/14 04:16:36;;;;;;;;;;;15.70;99.90;;;;;;5071644;28;19916;-72
2022/05/14 04:19:02;;;;;;;;;;;15.80;99.90;;;;;;5071349;28;20330;-72
2022/05/14 04:21:27;;;;;;;;;;;15.80;99.90;;;;;;5071418;28;19932;-72
2022/05/14 04:23:53;;;;;;;;;;;15.90;99.90;;;;;;5071470;28;19943;-72
2022/05/14 04:26:22;;;;;;;;;;;15.90;99.90;;;;;;5070044;28;19909;-73
2022/05/14 04:28:48;;;;;;;;;;;15.90;99.90;;;;;;5071409;28;19921;-73
2022/05/14 04:31:13;;;;;;;;;;;15.80;99.90;;;;;;5071201;28;20306;-73
2022/05/14 04:33:39;;;;;;;;;;;15.80;99.90;;;;;;5071053;28;20011;-73
2022/05/14 04:36:04;;;;;;;;;;;15.90;99.90;;;;;;5071258;28;19908;-73
2022/05/14 04:38:30;;;;;;;;;;;15.90;99.90;;;;;;5071318;28;20497;-73
2022/05/14 04:40:55;;;;;;;;;;;15.90;99.90;;;;;;5071571;28;19908;-72
2022/05/14 04:43:21;;;;;;;;;;;15.90;99.90;;;;;;5071034;28;19970;-72
2022/05/14 04:45:46;;;;;;;;;;;16.10;99.90;;;;;;5070893;28;20288;-71
2022/05/14 04:48:12;;;;;;;;;;;16.20;99.90;;;;;;5069894;28;20266;-71
2022/05/14 04:50:38;;;;;;;;;;;16.30;99.90;;;;;;5071097;28;19958;-72
2022/05/14 04:53:04;;;;;;;;;;;16.40;99.90;;;;;;5071016;28;19908;-71
2022/05/14 04:55:30;;;;;;;;;;;16.40;99.90;;;;;;5071342;28;19909;-72
2022/05/14 04:57:56;;;;;;;;;;;16.50;99.90;;;;;;5053006;28;19915;-72
2022/05/14 05:00:22;;;;;;;;;;;16.60;99.90;;;;;;5070810;28;19921;-72
2022/05/14 05:05:32;;;;;;;;;;;16.70;99.90;;;;;;5070888;28;19958;-72
2022/05/14 05:07:58;;;;;;;;;;;16.80;99.90;;;;;;5069623;28;19916;-72
2022/05/14 05:10:23;;;;;;;;;;;17.00;99.90;;;;;;5069397;28;20007;-71
2022/05/14 05:12:49;;;;;;;;;;;17.00;99.90;;;;;;5071084;28;19967;-71
2022/05/14 05:15:15;;;;;;;;;;;16.90;99.90;;;;;;5071130;28;19916;-72
2022/05/14 05:17:40;;;;;;;;;;;16.80;99.90;;;;;;5070807;28;20435;-71
2022/05/14 05:20:06;;;;;;;;;;;16.70;99.90;;;;;;5070615;28;20313;-72
2022/05/14 05:22:32;;;;;;;;;;;16.70;99.90;;;;;;5070749;28;20007;-73
2022/05/14 05:24:57;;;;;;;;;;;16.80;99.90;;;;;;5070868;28;19963;-71
2022/05/14 05:27:23;;;;;;;;;;;16.90;99.90;;;;;;5070584;28;19912;-71
2022/05/14 05:29:48;;;;;;;;;;;17.00;99.90;;;;;;5070691;28;20074;-72
2022/05/14 05:32:14;;;;;;;;;;;17.10;99.90;;;;;;5070414;28;19915;-72
2022/05/14 05:34:40;;;;;;;;;;;17.10;99.90;;;;;;5070364;28;20277;-72
2022/05/14 05:37:05;;;;;;;;;;;17.10;99.90;;;;;;5070677;28;19916;-73
2022/05/14 05:39:30;;;;;;;;;;;17.10;99.90;;;;;;5070823;28;19916;-72
2022/05/14 05:41:58;;;;;;;;;;;17.20;99.90;;;;;;5070624;28;20027;-72
2022/05/14 05:44:26;;;;;;;;;;;17.10;99.90;;;;;;5070661;28;19999;-72
2022/05/14 05:46:52;;;;;;;;;;;17.10;99.90;;;;;;5070621;28;20288;-72
2022/05/14 05:49:18;;;;;;;;;;;17.10;99.90;;;;;;5070474;28;19916;-72
2022/05/14 05:51:43;;;;;;;;;;;17.20;99.90;;;;;;5069162;28;19912;-73
2022/05/14 05:57:07;;;;;;;;;;;17.20;99.90;;;;;;5047474;28;20370;-72
2022/05/14 05:59:33;;;;;;;;;;;17.20;99.90;;;;;;5073609;28;19916;-72
2022/05/14 06:01:58;;;;;;;;;;;17.30;99.90;;;;;;5073835;28;19915;-73
2022/05/14 06:04:24;;;;;;;;;;;17.30;99.90;;;;;;5073761;28;19921;-73
2022/05/14 06:06:50;;;;;;;;;;;17.40;99.90;;;;;;5074135;28;19947;-73
2022/05/14 06:09:17;;;;;;;;;;;17.40;99.90;;;;;;5073748;28;20333;-73
2022/05/14 06:11:43;;;;;;;;;;;17.70;99.90;;;;;;5072384;28;20007;-72
2022/05/14 06:14:09;;;;;;;;;;;17.70;99.90;;;;;;5073660;28;19996;-73
2022/05/14 06:16:34;;;;;;;;;;;17.60;99.90;;;;;;5073637;28;19909;-73
2022/05/14 06:19:00;;;;;;;;;;;17.50;99.90;;;;;;5073751;28;19977;-73
2022/05/14 06:21:25;;;;;;;;;;;17.40;99.90;;;;;;5073774;28;19925;-73
2022/05/14 06:23:51;;;;;;;;;;;17.40;99.90;;;;;;5073665;28;19927;-73
2022/05/14 06:26:17;;;;;;;;;;;17.30;99.90;;;;;;5073515;28;20347;-73
2022/05/14 06:28:42;;;;;;;;;;;17.30;99.90;;;;;;5073374;28;19920;-72
2022/05/14 06:31:08;;;;;;;;;;;17.30;99.90;;;;;;5073159;28;19995;-72
2022/05/14 06:33:33;;;;;;;;;;;17.30;99.90;;;;;;5072975;28;19917;-72
2022/05/14 06:35:59;;;;;;;;;;;17.30;99.90;;;;;;5073403;28;19948;-72
2022/05/14 06:38:26;;;;;;;;;;;17.30;99.90;;;;;;5073014;28;19996;-72
2022/05/14 06:40:52;;;;;;;;;;;17.30;99.90;;;;;;5073096;28;19950;-72
2022/05/14 06:43:17;;;;;;;;;;;17.30;99.90;;;;;;5072822;28;19959;-72
2022/05/14 06:45:43;;;;;;;;;;;17.50;99.90;;;;;;5072016;28;19954;-72
2022/05/14 06:48:09;;;;;;;;;;;17.60;99.90;;;;;;5072516;28;19909;-72
2022/05/14 06:50:38;;;;;;;;;;;17.70;99.90;;;;;;5072859;28;19912;-73
2022/05/14 06:53:04;;;;;;;;;;;17.70;99.90;;;;;;5073011;28;19908;-73
2022/05/14 06:55:34;;;;;;;;;;;17.80;99.90;;;;;;5072694;28;20299;-73
2022/05/14 06:57:59;;;;;;;;;;;17.90;99.90;;;;;;5071458;28;20220;-73
2022/05/14 07:00:25;;;;;;;;;;;17.90;99.90;;;;;;5072569;28;19995;-72
2022/05/14 07:02:51;;;;;;;;;;;18.00;99.90;;;;;;5072437;28;19908;-72
2022/05/14 07:08:01;;;;;;;;;;;18.30;99.90;;;;;;5072601;28;20322;-72
2022/05/14 07:10:26;;;;;;;;;;;18.30;99.90;;;;;;5072291;28;20026;-72
2022/05/14 07:12:55;;;;;;;;;;;18.40;99.90;;;;;;5072472;28;19908;-72
2022/05/14 07:15:20;;;;;;;;;;;18.30;99.90;;;;;;5072044;28;20376;-72
2022/05/14 07:17:46;;;;;;;;;;;18.30;99.90;;;;;;5072246;28;20034;-72
2022/05/14 07:20:11;;;;;;;;;;;18.20;99.90;;;;;;5072176;28;19924;-72
2022/05/14 07:22:37;;;;;;;;;;;18.30;99.90;;;;;;5070900;28;20003;-72
2022/05/14 07:25:03;;;;;;;;;;;18.40;99.90;;;;;;5072299;28;19923;-72
2022/05/14 07:27:28;;;;;;;;;;;18.50;99.90;;;;;;5072018;28;20003;-72
2022/05/14 07:29:54;;;;;;;;;;;18.60;99.90;;;;;;5071676;28;19921;-72
2022/05/14 07:32:20;;;;;;;;;;;18.90;99.90;;;;;;5072032;28;19912;-71
2022/05/14 07:34:45;;;;;;;;;;;18.90;99.90;;;;;;5072252;28;19920;-72
2022/05/14 07:37:13;;;;;;;;;;;18.90;99.90;;;;;;5071873;28;19912;-73
2022/05/14 07:39:44;;;;;;;;;;;19.00;99.90;;;;;;5072260;28;20386;-73
2022/05/14 07:42:12;;;;;;;;;;;19.10;99.90;;;;;;5071787;28;19960;-72
2022/05/14 07:44:39;;;;;;;;;;;19.10;99.90;;;;;;5071491;28;20004;-72
2022/05/14 07:47:05;;;;;;;;;;;19.10;99.90;;;;;;5071633;28;19909;-72
2022/05/14 07:49:32;;;;;;;;;;;19.00;99.90;;;;;;5071765;28;19931;-72
2022/05/14 07:51:58;;;;;;;;;;;18.90;99.90;;;;;;5071541;28;20012;-72
2022/05/14 07:54:24;;;;;;;;;;;18.90;99.90;;;;;;5071740;28;20007;-72
2022/05/14 07:56:50;;;;;;;;;;;18.90;99.90;;;;;;5071551;28;19999;-72
2022/05/14 07:59:15;;;;;;;;;;;19.00;99.90;;;;;;5071696;28;19917;-72
2022/05/14 08:01:41;;;;;;;;;;;19.00;99.90;;;;;;5071693;28;19935;-72
2022/05/14 08:04:07;;;;;;;;;;;19.00;99.90;;;;;;5071581;28;19917;-72
2022/05/14 08:06:33;;;;;;;;;;;19.00;99.90;;;;;;5071546;28;19916;-73
2022/05/14 08:08:59;;;;;;;;;;;19.00;99.90;;;;;;5071475;28;20011;-72
2022/05/14 08:11:24;;;;;;;;;;;19.00;99.90;;;;;;5071183;28;19913;-72
2022/05/14 08:13:54;;;;;;;;;;;18.90;99.90;;;;;;5071521;28;19916;-72
2022/05/14 08:16:23;;;;;;;;;;;18.90;99.90;;;;;;5071110;28;19908;-73
2022/05/14 08:18:49;;;;;;;;;;;18.70;99.90;;;;;;5071152;28;19967;-72
2022/05/14 08:26:43;;;;;;;;;;;18.50;99.90;;;;;;5071231;28;19936;-72
2022/05/14 08:29:08;;;;;;;;;;;18.50;99.90;;;;;;5071409;28;20349;-72
2022/05/14 08:31:34;;;;;;;;;;;18.40;99.90;;;;;;5071039;28;19923;-72
2022/05/14 08:34:00;;;;;;;;;;;18.30;99.90;;;;;;5071150;28;20348;-73
2022/05/14 08:36:25;;;;;;;;;;;18.40;99.90;;;;;;5069691;28;19909;-71
2022/05/14 08:38:51;;;;;;;;;;;18.40;99.90;;;;;;5071092;28;19998;-71
2022/05/14 08:41:18;;;;;;;;;;;18.50;99.90;;;;;;5070989;28;19990;-72
2022/05/14 08:43:47;;;;;;;;;;;18.50;99.90;;;;;;5071068;28;20010;-72
2022/05/14 08:46:14;;;;;;;;;;;18.50;99.90;;;;;;5071140;28;19977;-72
2022/05/14 08:48:39;;;;;;;;;;;18.50;99.90;;;;;;5070898;28;19970;-72
2022/05/14 08:51:11;;;;;;;;;;;18.50;99.90;;;;;;5070724;28;19920;-72
2022/05/14 08:53:37;;;;;;;;;;;18.60;99.90;;;;;;5070651;28;19956;-72
2022/05/14 08:56:12;;;;;;;;;;;18.50;99.90;;;;;;5071110;28;20295;-72
2022/05/14 08:58:49;;;;;;;;;;;18.50;99.90;;;;;;5069408;28;19920;-72
2022/05/14 09:01:18;;;;;;;;;;;18.40;99.90;;;;;;5070891;28;19912;-73
2022/05/14 09:03:44;;;;;;;;;;;18.30;99.90;;;;;;5069327;28;19916;-72
2022/05/14 09:06:09;;;;;;;;;;;18.30;99.90;;;;;;5070676;28;19915;-73
2022/05/14 09:08:35;;;;;;;;;;;18.30;99.90;;;;;;5070690;28;19916;-73
2022/05/14 09:11:11;;;;;;;;;;;18.20;99.90;;;;;;5070713;28;19920;-73
2022/05/14 09:13:44;;;;;;;;;;;18.20;99.90;;;;;;5070544;28;19916;-72
2022/05/14 09:16:19;;;;;;;;;;;18.10;99.90;;;;;;5070500;28;19909;-72
2022/05/14 09:18:45;;;;;;;;;;;18.20;99.90;;;;;;5070603;28;19924;-71
2022/05/14 09:21:21;;;;;;;;;;;18.10;99.90;;;;;;5070300;28;20007;-72
2022/05/14 09:23:50;;;;;;;;;;;18.10;99.90;;;;;;5070460;28;20404;-73
2022/05/14 09:26:23;;;;;;;;;;;18.20;99.90;;;;;;5069478;28;20397;-73
2022/05/14 09:28:54;;;;;;;;;;;18.10;99.90;;;;;;5070443;28;19917;-73
2022/05/14 09:31:42;;;;;;;;;;;18.20;99.90;;;;;;5071005;28;19920;-73
2022/05/14 09:34:15;;;;;;;;;;;18.10;99.90;;;;;;5073978;28;19916;-72
2022/05/14 09:36:42;;;;;;;;;;;18.20;99.90;;;;;;5074343;28;19916;-72
2022/05/14 09:39:12;;;;;;;;;;;18.30;99.90;;;;;;5074297;28;19967;-72
2022/05/14 09:41:40;;;;;;;;;;;18.50;99.90;;;;;;5074090;28;19916;-72
2022/05/14 09:44:06;;;;;;;;;;;18.60;99.90;;;;;;5074090;28;20325;-73
2022/05/14 09:46:32;;;;;;;;;;;18.80;99.90;;;;;;5074136;28;20011;-72
2022/05/14 09:49:03;;;;;;;;;;;18.90;99.90;;;;;;5074224;28;20000;-73
2022/05/14 09:52:07;;;;;;;;;;;19.00;99.90;;;;;;5072295;28;20010;-73
2022/05/14 09:54:41;;;;;;;;;;;19.00;99.90;;;;;;5034326;28;19912;-73
2022/05/14 09:57:12;;;;;;;;;;;19.00;99.90;;;;;;5051273;28;20007;-72
2022/05/14 10:00:00;;;;;;;;;;;19.00;99.90;;;;;;5063718;28;20043;-72
2022/05/14 10:02:35;;;;;;;;;;;19.40;99.90;;;;;;5074439;28;20362;-72
2022/05/14 10:05:03;;;;;;;;;;;20.20;99.50;;;;;;5073897;28;20429;-72
2022/05/14 10:07:47;;;;;;;;;;;21.00;99.30;;;;;;5073584;28;19920;-72
2022/05/14 10:10:13;;;;;;;;;;;21.60;97.60;;;;;;5073740;28;20364;-72
2022/05/14 10:12:38;;;;;;;;;;;21.80;96.60;;;;;;5073464;28;19913;-72
2022/05/14 10:15:27;;;;;;;;;;;21.80;96.80;;;;;;5073839;28;19967;-72
2022/05/14 10:17:58;;;;;;;;;;;21.70;95.60;;;;;;5070304;28;19912;-73
2022/05/14 10:20:39;;;;;;;;;;;21.40;96.40;;;;;;5073275;28;19925;-73
2022/05/14 10:26:47;;;;;;;;;;;20.90;96.20;;;;;;5073301;28;20206;-72
2022/05/14 10:29:32;;;;;;;;;;;20.70;96.40;;;;;;5073517;28;19921;-73
2022/05/14 10:31:59;;;;;;;;;;;20.60;96.60;;;;;;5073353;28;19912;-73
2022/05/14 10:34:47;;;;;;;;;;;20.80;96.20;;;;;;5073334;28;19999;-73
2022/05/14 10:37:23;;;;;;;;;;;21.20;95.70;;;;;;5070064;28;19912;-72
2022/05/14 10:40:03;;;;;;;;;;;21.50;94.80;;;;;;5073529;28;19920;-72
2022/05/14 10:42:41;;;;;;;;;;;21.90;94.50;;;;;;5072877;28;19912;-73
2022/05/14 10:45:16;;;;;;;;;;;22.10;94.50;;;;;;5071261;28;19963;-72
2022/05/14 10:47:45;;;;;;;;;;;22.10;93.80;;;;;;5072818;28;20335;-73
2022/05/14 10:50:20;;;;;;;;;;;22.20;94.00;;;;;;5073074;28;20253;-72
2022/05/14 10:52:47;;;;;;;;;;;22.20;93.90;;;;;;5072642;28;20370;-73
2022/05/14 10:55:17;;;;;;;;;;;22.30;93.70;;;;;;5073136;28;20011;-74
2022/05/14 10:57:45;;;;;;;;;;;22.10;93.50;;;;;;5072839;28;19936;-73
2022/05/14 11:00:15;;;;;;;;;;;21.80;94.00;;;;;;5071310;28;19967;-72
2022/05/14 11:02:55;;;;;;;;;;;21.30;94.60;;;;;;5071439;28;19908;-73
2022/05/14 11:05:32;;;;;;;;;;;21.00;94.80;;;;;;5072266;28;19920;-73
2022/05/14 11:08:08;;;;;;;;;;;20.60;94.90;;;;;;5072699;28;19913;-73
2022/05/14 11:10:35;;;;;;;;;;;20.30;95.60;;;;;;5072648;28;19913;-72
2022/05/14 11:13:13;;;;;;;;;;;20.20;95.80;;;;;;5072533;28;19923;-73
2022/05/14 11:15:39;;;;;;;;;;;20.20;96.30;;;;;;5072307;28;19923;-73
2022/05/14 11:18:10;;;;;;;;;;;20.20;95.70;;;;;;5072206;28;19909;-73
2022/05/14 11:20:36;;;;;;;;;;;20.10;96.20;;;;;;5072352;28;19954;-73
2022/05/14 11:23:05;;;;;;;;;;;20.10;96.20;;;;;;5070973;28;19916;-73
2022/05/14 11:25:31;;;;;;;;;;;20.10;96.30;;;;;;5072343;28;19961;-73
2022/05/14 11:28:11;;;;;;;;;;;20.00;96.20;;;;;;5072295;28;19912;-73
2022/05/14 11:30:39;;;;;;;;;;;19.90;96.40;;;;;;5072029;28;19924;-73
2022/05/14 11:33:16;;;;;;;;;;;19.80;93.80;;;;;;5072303;28;19909;-73
2022/05/14 11:35:43;;;;;;;;;;;19.80;94.40;;;;;;5072078;28;19978;-73
2022/05/14 11:38:13;;;;;;;;;;;20.10;93.80;;;;;;5071994;28;19919;-73
2022/05/14 11:40:38;;;;;;;;;;;20.20;93.40;;;;;;5072001;28;19935;-74
2022/05/14 11:43:22;;;;;;;;;;;20.30;93.20;;;;;;5071639;28;19908;-73
2022/05/14 11:46:02;;;;;;;;;;;20.30;92.80;;;;;;5071821;28;19916;-73
2022/05/14 11:48:30;;;;;;;;;;;20.20;93.50;;;;;;5071856;28;19925;-73
2022/05/14 11:51:05;;;;;;;;;;;20.00;93.30;;;;;;5071770;28;20403;-73
2022/05/14 11:53:33;;;;;;;;;;;19.80;93.40;;;;;;5070107;28;19917;-73
2022/05/14 11:56:06;;;;;;;;;;;19.60;93.20;;;;;;5071910;28;19912;-73
2022/05/14 11:58:36;;;;;;;;;;;19.40;93.80;;;;;;5071675;28;19916;-73
2022/05/14 12:01:06;;;;;;;;;;;19.20;94.40;;;;;;5071559;28;20245;-74
2022/05/14 12:03:34;;;;;;;;;;;19.10;94.40;;;;;;5070171;28;19923;-73
2022/05/14 12:06:09;;;;;;;;;;;18.80;95.00;;;;;;5071399;28;19918;-72
2022/05/14 12:08:36;;;;;;;;;;;18.70;95.40;;;;;;5071272;28;19927;-73
2022/05/14 12:11:20;;;;;;;;;;;18.70;95.10;;;;;;5071482;28;19913;-72
2022/05/14 12:13:54;;;;;;;;;;;18.80;95.20;;;;;;5071313;28;19917;-72
2022/05/14 12:16:30;;;;;;;;;;;18.80;95.30;;;;;;5071341;28;19915;-72
2022/05/14 12:18:55;;;;;;;;;;;18.80;95.80;;;;;;5071417;28;19952;-72
2022/05/14 12:21:21;;;;;;;;;;;18.80;95.40;;;;;;5071020;28;20347;-72
2022/05/14 12:23:48;;;;;;;;;;;18.40;95.40;;;;;;5071409;28;19936;-72
2022/05/14 12:26:33;;;;;;;;;;;18.90;95.50;;;;;;5069817;28;19943;-71
2022/05/14 12:29:00;;;;;;;;;;;18.90;95.60;;;;;;5071119;28;19916;-72
2022/05/14 12:34:15;;;;;;;;;;;19.10;95.40;;;;;;5071451;28;19997;-73
2022/05/14 12:36:53;;;;;;;;;;;19.20;95.20;;;;;;5071239;28;19909;-73
2022/05/14 12:39:23;;;;;;;;;;;19.30;95.50;;;;;;5069540;28;19923;-72
2022/05/14 12:41:54;;;;;;;;;;;19.70;95.10;;;;;;5069629;28;19908;-71
2022/05/14 12:44:28;;;;;;;;;;;20.10;95.20;;;;;;5070853;28;19917;-72
2022/05/14 12:46:56;;;;;;;;;;;20.30;94.20;;;;;;5071012;28;19923;-72
2022/05/14 12:49:23;;;;;;;;;;;20.30;94.40;;;;;;5071138;28;20010;-72
2022/05/14 12:51:50;;;;;;;;;;;20.40;94.00;;;;;;5071038;28;20368;-72
2022/05/14 12:54:19;;;;;;;;;;;20.10;94.50;;;;;;5070742;28;19966;-73
2022/05/14 12:56:46;;;;;;;;;;;19.80;94.10;;;;;;5069590;28;19958;-73
2022/05/14 12:59:11;;;;;;;;;;;19.60;93.60;;;;;;5069526;28;20311;-73
2022/05/14 13:01:37;;;;;;;;;;;19.40;93.60;;;;;;5070871;28;19958;-73
2022/05/14 13:04:06;;;;;;;;;;;19.30;93.80;;;;;;5070854;28;19959;-72
2022/05/14 13:06:34;;;;;;;;;;;19.20;94.30;;;;;;5072281;28;20029;-72
2022/05/14 13:09:05;;;;;;;;;;;19.20;94.30;;;;;;5075091;28;20323;-72
2022/05/14 13:11:32;;;;;;;;;;;19.30;94.00;;;;;;5074815;28;19924;-73
2022/05/14 13:14:08;;;;;;;;;;;19.30;94.30;;;;;;5073334;28;20356;-73
2022/05/14 13:16:33;;;;;;;;;;;19.20;94.10;;;;;;5074829;28;20328;-72
2022/05/14 13:19:01;;;;;;;;;;;19.10;94.30;;;;;;5073232;28;19913;-72
2022/05/14 13:21:33;;;;;;;;;;;19.00;94.40;;;;;;5073003;28;19931;-72
2022/05/14 13:24:00;;;;;;;;;;;18.90;94.50;;;;;;5074577;28;19951;-72
2022/05/14 13:26:32;;;;;;;;;;;18.80;94.80;;;;;;5074709;28;19908;-73
2022/05/14 13:29:16;;;;;;;;;;;18.60;94.80;;;;;;5074477;28;19920;-72
2022/05/14 13:31:42;;;;;;;;;;;18.50;94.90;;;;;;5074230;28;19913;-73
2022/05/14 13:37:08;;;;;;;;;;;18.50;95.40;;;;;;5074831;28;19914;-73
2022/05/14 13:39:40;;;;;;;;;;;18.70;95.10;;;;;;5074688;28;19962;-73
2022/05/14 13:42:08;;;;;;;;;;;19.00;95.10;;;;;;5072982;28;20003;-73
2022/05/14 13:44:34;;;;;;;;;;;19.20;95.20;;;;;;5074556;28;20318;-73
2022/05/14 13:47:01;;;;;;;;;;;19.30;94.60;;;;;;5074256;28;19909;-73
2022/05/14 13:49:34;;;;;;;;;;;19.50;94.10;;;;;;5074287;28;20355;-73
2022/05/14 13:52:00;;;;;;;;;;;19.70;93.90;;;;;;5074187;28;19912;-73
2022/05/14 13:54:31;;;;;;;;;;;19.70;93.60;;;;;;5074207;28;19916;-73
2022/05/14 13:57:02;;;;;;;;;;;19.60;93.60;;;;;;5074175;28;19909;-73
2022/05/14 13:59:30;;;;;;;;;;;19.60;93.70;;;;;;5074082;28;19924;-72
2022/05/14 14:02:10;;;;;;;;;;;19.50;93.40;;;;;;5073930;28;19915;-73
2022/05/14 14:04:38;;;;;;;;;;;19.40;93.40;;;;;;5073959;28;20275;-73
2022/05/14 14:07:04;;;;;;;;;;;19.40;93.60;;;;;;5073767;28;19981;-73
2022/05/14 14:09:30;;;;;;;;;;;19.40;93.70;;;;;;5073788;28;20332;-73
2022/05/14 14:11:56;;;;;;;;;;;19.50;93.40;;;;;;5074226;28;20386;-73
2022/05/14 14:14:22;;;;;;;;;;;19.60;93.50;;;;;;5074048;28;19916;-74
2022/05/14 14:16:47;;;;;;;;;;;19.50;93.20;;;;;;5074093;28;19920;-73
2022/05/14 14:19:13;;;;;;;;;;;19.30;92.70;;;;;;5072623;28;19923;-73
2022/05/14 14:21:39;;;;;;;;;;;19.20;92.90;;;;;;5073617;28;19924;-73
2022/05/14 14:24:05;;;;;;;;;;;19.20;92.70;;;;;;5073673;28;19916;-73
2022/05/14 14:26:31;;;;;;;;;;;19.10;93.00;;;;;;5073624;28;19909;-72
2022/05/14 14:28:58;;;;;;;;;;;19.00;93.00;;;;;;5073807;28;20310;-73
2022/05/14 14:31:23;;;;;;;;;;;18.80;93.00;;;;;;5073413;28;19919;-72
2022/05/14 14:33:49;;;;;;;;;;;18.90;92.70;;;;;;5073487;28;20429;-72
2022/05/14 14:36:15;;;;;;;;;;;18.80;93.00;;;;;;5073465;28;19935;-72
2022/05/14 14:38:41;;;;;;;;;;;18.70;93.10;;;;;;5073310;28;19917;-73
2022/05/14 14:41:07;;;;;;;;;;;18.70;93.00;;;;;;5073359;28;19909;-72
2022/05/14 14:43:35;;;;;;;;;;;18.70;92.50;;;;;;5073282;28;19924;-73
2022/05/14 14:46:01;;;;;;;;;;;18.50;92.60;;;;;;5073152;28;19930;-73
2022/05/14 14:48:32;;;;;;;;;;;18.50;92.90;;;;;;5073310;28;20419;-73
2022/05/14 14:50:59;;;;;;;;;;;18.40;93.00;;;;;;5073039;28;19916;-71
2022/05/14 14:53:24;;;;;;;;;;;18.50;92.80;;;;;;5072718;28;19929;-72